createdAt,value
2024-03-09T00:01:17.899Z,100822.48
2024-03-09T00:04:13.747Z,100823.02
2024-03-09T00:07:21.824Z,100818.69
2024-03-09T00:10:31.622Z,100814.89
2024-03-09T00:13:59.412Z,100815.77
2024-03-09T00:17:09.800Z,100813.69
2024-03-09T00:20:21.223Z,100816.94
2024-03-09T00:23:49.200Z,100816.45
2024-03-09T00:26:38.924Z,100813.94
2024-03-09T00:29:47.270Z,100812.70
2024-03-09T00:33:03.193Z,100812.04
2024-03-09T00:36:12.654Z,100807.11
2024-03-09T00:39:40.274Z,100799.94
2024-03-09T00:43:08.463Z,100795.06
2024-03-09T00:45:58.453Z,100794.77
2024-03-09T00:49:07.287Z,100795.15
2024-03-09T00:52:32.078Z,100797.36
2024-03-09T00:55:24.616Z,100795.77
2024-03-09T00:58:32.200Z,100796.51
2024-03-09T01:01:42.446Z,100791.40
2024-03-09T01:04:51.994Z,100787.91
2024-03-09T01:08:21.051Z,100788.98
2024-03-09T01:11:47.510Z,100794.05
2024-03-09T01:15:11.771Z,100794.23
2024-03-09T01:18:20.570Z,100789.27
2024-03-09T01:21:32.303Z,100788.64
2024-03-09T01:24:22.157Z,100786.04
2024-03-09T01:27:50.202Z,100777.96
2024-03-09T01:30:58.300Z,100776.42
2024-03-09T01:34:26.103Z,100773.86
2024-03-09T01:37:50.245Z,100771.95
2024-03-09T01:41:05.937Z,100768.58
2024-03-09T01:44:33.632Z,100770.16
2024-03-09T01:47:42.036Z,100760.64
2024-03-09T01:50:51.570Z,100758.62
2024-03-09T01:53:40.726Z,100756.83
2024-03-09T01:57:08.561Z,100755.27
2024-03-09T02:00:15.998Z,100750.23
2024-03-09T02:03:25.901Z,100746.73
2024-03-09T02:06:34.010Z,100741.59
2024-03-09T02:09:44.301Z,100745.70
2024-03-09T02:13:12.182Z,100748.70
2024-03-09T02:16:39.986Z,100743.93
2024-03-09T02:20:07.727Z,100739.28
2024-03-09T02:23:35.380Z,100736.00
2024-03-09T02:27:03.310Z,100733.36
2024-03-09T02:30:14.994Z,100731.58
2024-03-09T02:33:11.365Z,100729.38
2024-03-09T02:36:39.612Z,100721.66
2024-03-09T02:39:36.923Z,100719.09
2024-03-09T02:43:05.186Z,100717.48
2024-03-09T02:46:32.983Z,100712.64
2024-03-09T02:49:29.101Z,100711.71
2024-03-09T02:52:44.622Z,100706.70
2024-03-09T02:56:12.515Z,100699.98
2024-03-09T02:59:20.392Z,100697.23
2024-03-09T03:02:48.056Z,100695.64
2024-03-09T03:05:57.652Z,100694.42
2024-03-09T03:09:25.495Z,100685.30
2024-03-09T03:12:37.611Z,100685.00
2024-03-09T03:15:49.006Z,100685.86
2024-03-09T03:19:01.218Z,100685.91
2024-03-09T03:22:29.050Z,100686.79
2024-03-09T03:25:37.461Z,100681.78
2024-03-09T03:28:52.638Z,100679.29
2024-03-09T03:32:20.585Z,100677.20
2024-03-09T03:35:18.367Z,100676.06
2024-03-09T03:38:34.244Z,100669.63
2024-03-09T03:41:42.986Z,100670.27
2024-03-09T03:45:10.828Z,100670.41
2024-03-09T03:48:38.690Z,100666.75
2024-03-09T03:52:06.514Z,100661.60
2024-03-09T03:55:29.491Z,100659.21
2024-03-09T03:58:57.218Z,100654.67
2024-03-09T04:02:21.553Z,100657.01
2024-03-09T04:05:49.172Z,100658.55
2024-03-09T04:09:17.126Z,100660.04
2024-03-09T04:12:44.912Z,100659.77
2024-03-09T04:15:57.311Z,100664.70
2024-03-09T04:19:25.074Z,100664.63
2024-03-09T04:22:52.998Z,100662.23
2024-03-09T04:26:01.274Z,100663.80
2024-03-09T04:29:09.802Z,100659.68
2024-03-09T04:32:37.503Z,100651.42
2024-03-09T04:35:49.810Z,100652.60
2024-03-09T04:38:58.298Z,100649.42
2024-03-09T04:42:06.515Z,100647.60
2024-03-09T04:45:18.168Z,100645.05
2024-03-09T04:48:46.274Z,100640.42
2024-03-09T04:51:53.193Z,100631.16
2024-03-09T04:55:20.957Z,100634.52
2024-03-09T04:58:17.492Z,100637.43
2024-03-09T05:01:22.333Z,100636.38
2024-03-09T05:04:13.310Z,100638.48
2024-03-09T05:07:36.830Z,100644.83
2024-03-09T05:10:44.672Z,100644.52
2024-03-09T05:14:12.811Z,100649.44
2024-03-09T05:17:21.449Z,100653.02
2024-03-09T05:20:49.140Z,100654.75
2024-03-09T05:24:17.218Z,100655.28
2024-03-09T05:27:45.325Z,100653.33
2024-03-09T05:30:34.044Z,100651.25
2024-03-09T05:34:01.948Z,100649.77
2024-03-09T05:37:29.596Z,100645.27
2024-03-09T05:40:41.295Z,100647.35
2024-03-09T05:44:09.367Z,100652.14
2024-03-09T05:47:21.008Z,100648.79
2024-03-09T05:50:48.716Z,100646.26
2024-03-09T05:54:16.425Z,100644.08
2024-03-09T05:57:44.266Z,100641.69
2024-03-09T06:01:11.987Z,100641.58
2024-03-09T06:04:27.615Z,100642.38
2024-03-09T06:07:55.532Z,100639.50
2024-03-09T06:11:23.466Z,100641.35
2024-03-09T06:14:12.217Z,100637.89
2024-03-09T06:17:39.910Z,100635.07
2024-03-09T06:21:07.712Z,100639.23
2024-03-09T06:24:18.788Z,100636.42
2024-03-09T06:27:42.172Z,100641.75
2024-03-09T06:31:10.412Z,100646.21
2024-03-09T06:34:25.821Z,100647.23
2024-03-09T06:37:34.011Z,100648.13
2024-03-09T06:41:01.850Z,100653.54
2024-03-09T06:44:29.711Z,100659.40
2024-03-09T06:47:57.625Z,100663.16
2024-03-09T06:51:25.471Z,100666.38
2024-03-09T06:54:33.447Z,100673.55
2024-03-09T06:57:43.465Z,100669.66
2024-03-09T07:01:11.355Z,100669.05
2024-03-09T07:04:23.652Z,100666.55
2024-03-09T07:07:51.317Z,100671.36
2024-03-09T07:11:07.356Z,100668.77
2024-03-09T07:13:56.359Z,100665.67
2024-03-09T07:17:23.992Z,100670.36
2024-03-09T07:20:33.427Z,100678.55
2024-03-09T07:24:01.449Z,100682.77
2024-03-09T07:27:29.209Z,100678.10
2024-03-09T07:30:57.100Z,100681.19
2024-03-09T07:33:49.073Z,100683.86
2024-03-09T07:37:16.801Z,100678.77
2024-03-09T07:40:24.752Z,100676.08
2024-03-09T07:43:37.520Z,100677.30
2024-03-09T07:47:03.110Z,100674.04
2024-03-09T07:50:10.970Z,100678.64
2024-03-09T07:53:34.660Z,100678.71
2024-03-09T07:56:44.224Z,100677.65
2024-03-09T08:00:12.144Z,100669.63
2024-03-09T08:03:06.009Z,100669.98
2024-03-09T08:05:57.269Z,100665.17
2024-03-09T08:09:01.731Z,100672.02
2024-03-09T08:12:09.972Z,100677.42
2024-03-09T08:15:20.117Z,100676.28
2024-03-09T08:18:27.932Z,100675.43
2024-03-09T08:21:55.774Z,100679.88
2024-03-09T08:25:11.267Z,100683.12
2024-03-09T08:28:18.965Z,100678.43
2024-03-09T08:31:17.370Z,100683.59
2024-03-09T08:34:46.065Z,100679.90
2024-03-09T08:38:09.835Z,100681.08
2024-03-09T08:41:02.814Z,100683.94
2024-03-09T08:44:30.709Z,100675.58
2024-03-09T08:47:26.956Z,100673.09
2024-03-09T08:50:34.980Z,100668.55
2024-03-09T08:54:02.985Z,100678.27
2024-03-09T08:56:52.048Z,100675.91
2024-03-09T09:00:04.071Z,100670.55
2024-03-09T09:03:32.039Z,100665.38
2024-03-09T09:06:48.388Z,100668.21
2024-03-09T09:10:16.526Z,100666.72
2024-03-09T09:13:40.994Z,100656.63
2024-03-09T09:16:50.033Z,100648.42
2024-03-09T09:20:03.182Z,100646.45
2024-03-09T09:23:27.955Z,100646.25
2024-03-09T09:26:56.076Z,100646.77
2024-03-09T09:29:48.263Z,100647.11
2024-03-09T09:33:04.343Z,100646.88
2024-03-09T09:36:14.814Z,100641.69
2024-03-09T09:39:22.775Z,100642.91
2024-03-09T09:42:31.559Z,100635.88
2024-03-09T09:45:39.383Z,100637.36
2024-03-09T09:48:47.387Z,100633.52
2024-03-09T09:52:23.648Z,100631.89
2024-03-09T09:55:51.273Z,100631.89
2024-03-09T09:58:59.202Z,100629.04
2024-03-09T10:02:29.315Z,100635.45
2024-03-09T10:05:52.497Z,100630.44
2024-03-09T10:09:20.236Z,100623.73
2024-03-09T10:12:48.112Z,100620.55
2024-03-09T10:16:15.867Z,100617.39
2024-03-09T10:19:43.719Z,100609.95
2024-03-09T10:22:33.458Z,100609.98
2024-03-09T10:26:01.180Z,100606.10
2024-03-09T10:29:12.892Z,100602.50
2024-03-09T10:32:21.189Z,100594.70
2024-03-09T10:35:30.383Z,100593.29
2024-03-09T10:38:39.499Z,100591.36
2024-03-09T10:41:49.300Z,100590.60
2024-03-09T10:44:40.177Z,100589.32
2024-03-09T10:47:28.814Z,100580.52
2024-03-09T10:50:20.634Z,100567.80
2024-03-09T10:53:28.932Z,100566.66
2024-03-09T10:56:37.060Z,100558.61
2024-03-09T10:59:28.931Z,100560.68
2024-03-09T11:02:37.054Z,100558.67
2024-03-09T11:05:49.387Z,100544.64
2024-03-09T11:09:17.247Z,100536.34
2024-03-09T11:12:27.421Z,100522.36
2024-03-09T11:15:52.591Z,100519.55
2024-03-09T11:19:08.488Z,100513.67
2024-03-09T11:22:17.905Z,100510.48
2024-03-09T11:25:13.677Z,100507.68
2024-03-09T11:28:25.276Z,100503.70
2024-03-09T11:31:33.253Z,100499.58
2024-03-09T11:34:49.339Z,100494.18
2024-03-09T11:38:13.773Z,100495.41
2024-03-09T11:41:07.414Z,100490.63
2024-03-09T11:44:17.991Z,100488.00
2024-03-09T11:47:07.411Z,100480.13
2024-03-09T11:50:06.126Z,100474.00
2024-03-09T11:52:54.874Z,100468.13
2024-03-09T11:55:44.428Z,100465.13
2024-03-09T11:58:46.846Z,100460.83
2024-03-09T12:01:36.409Z,100453.41
2024-03-09T12:04:44.584Z,100453.84
2024-03-09T12:07:31.426Z,100453.45
2024-03-09T12:10:31.480Z,100454.45
2024-03-09T12:13:41.273Z,100453.46
2024-03-09T12:16:37.102Z,100450.71
2024-03-09T12:19:25.446Z,100451.91
2024-03-09T12:22:34.468Z,100449.95
2024-03-09T12:26:02.373Z,100442.00
2024-03-09T12:28:47.667Z,100438.60
2024-03-09T12:31:37.702Z,100435.68
2024-03-09T12:34:15.026Z,100434.48
2024-03-09T12:37:35.420Z,100437.03
2024-03-09T12:40:44.068Z,100438.18
2024-03-09T12:43:55.434Z,100441.20
2024-03-09T12:46:27.506Z,100441.47
2024-03-09T12:49:06.337Z,100437.34
2024-03-09T12:52:02.412Z,100434.18
2024-03-09T12:55:14.455Z,100430.36
2024-03-09T12:58:02.780Z,100426.83
2024-03-09T13:00:51.694Z,100425.61
2024-03-09T13:04:08.016Z,100425.28
2024-03-09T13:07:12.985Z,100425.65
2024-03-09T13:10:04.534Z,100422.56
2024-03-09T13:12:39.193Z,100421.34
2024-03-09T13:15:29.411Z,100421.91
2024-03-09T13:18:22.122Z,100421.10
2024-03-09T13:21:18.240Z,100418.70
2024-03-09T13:24:08.110Z,100415.20
2024-03-09T13:27:17.827Z,100409.14
2024-03-09T13:30:25.602Z,100405.45
2024-03-09T13:32:58.732Z,100406.63
2024-03-09T13:36:06.908Z,100401.21
2024-03-09T13:39:15.578Z,100392.52
2024-03-09T13:42:04.838Z,100380.30
2024-03-09T13:44:53.414Z,100380.60
2024-03-09T13:48:05.467Z,100378.73
2024-03-09T13:50:55.957Z,100377.40
2024-03-09T13:54:02.245Z,100372.91
2024-03-09T13:56:56.386Z,100364.92
2024-03-09T13:59:47.238Z,100361.41
2024-03-09T14:02:25.571Z,100356.63
2024-03-09T14:05:10.782Z,100357.73
2024-03-09T14:07:39.282Z,100351.11
2024-03-09T14:10:27.785Z,100344.20
2024-03-09T14:13:23.722Z,100345.10
2024-03-09T14:16:12.360Z,100342.71
2024-03-09T14:19:01.126Z,100338.50
2024-03-09T14:22:06.462Z,100334.14
2024-03-09T14:25:08.294Z,100335.09
2024-03-09T14:28:16.074Z,100335.66
2024-03-09T14:31:24.236Z,100337.51
2024-03-09T14:33:53.536Z,100334.57
2024-03-09T14:36:32.520Z,100333.21
2024-03-09T14:39:04.103Z,100325.76
2024-03-09T14:41:36.246Z,100321.95
2024-03-09T14:44:28.628Z,100323.29
2024-03-09T14:47:08.248Z,100323.45
2024-03-09T14:49:45.712Z,100320.27
2024-03-09T14:52:34.569Z,100316.71
2024-03-09T14:55:14.912Z,100322.11
2024-03-09T14:57:58.941Z,100318.91
2024-03-09T15:00:30.377Z,100312.27
2024-03-09T15:03:27.227Z,100307.58
2024-03-09T15:06:19.968Z,100314.63
2024-03-09T15:09:15.815Z,100314.05
2024-03-09T15:11:46.949Z,100315.06
2024-03-09T15:15:14.728Z,100313.05
2024-03-09T15:17:52.852Z,100313.80
2024-03-09T15:20:48.909Z,100307.48
2024-03-09T15:23:57.486Z,100299.91
2024-03-09T15:27:02.388Z,100299.78
2024-03-09T15:29:49.978Z,100296.79
2024-03-09T15:32:49.261Z,100292.65
2024-03-09T15:35:58.033Z,100288.58
2024-03-09T15:38:34.691Z,100290.17
2024-03-09T15:41:15.700Z,100286.81
2024-03-09T15:44:05.731Z,100292.42
2024-03-09T15:46:56.199Z,100295.19
2024-03-09T15:49:50.150Z,100296.39
2024-03-09T15:52:57.867Z,100293.39
2024-03-09T15:56:01.213Z,100302.63
2024-03-09T15:58:39.538Z,100303.04
2024-03-09T16:01:19.336Z,100300.67
2024-03-09T16:04:28.980Z,100298.98
2024-03-09T16:07:38.840Z,100304.17
2024-03-09T16:10:28.074Z,100303.16
2024-03-09T16:12:58.210Z,100302.05
2024-03-09T16:16:06.128Z,100303.55
2024-03-09T16:19:32.239Z,100306.74
2024-03-09T16:22:30.788Z,100300.70
2024-03-09T16:25:41.459Z,100302.10
2024-03-09T16:28:30.382Z,100302.09
2024-03-09T16:31:46.865Z,100297.20
2024-03-09T16:34:54.677Z,100299.65
2024-03-09T16:38:06.146Z,100305.77
2024-03-09T16:41:14.564Z,100307.09
2024-03-09T16:44:03.350Z,100308.59
2024-03-09T16:46:39.514Z,100308.91
2024-03-09T16:49:47.307Z,100303.17
2024-03-09T16:52:39.528Z,100302.75
2024-03-09T16:55:47.803Z,100308.48
2024-03-09T16:58:36.769Z,100304.81
2024-03-09T17:01:47.116Z,100305.92
2024-03-09T17:04:22.106Z,100307.63
2024-03-09T17:07:37.744Z,100308.45
2024-03-09T17:10:50.075Z,100310.11
2024-03-09T17:13:43.529Z,100306.70
2024-03-09T17:16:36.257Z,100307.08
2024-03-09T17:19:45.038Z,100307.29
2024-03-09T17:22:54.305Z,100315.62
2024-03-09T17:26:02.905Z,100311.02
2024-03-09T17:29:30.989Z,100310.58
2024-03-09T17:32:42.813Z,100314.56
2024-03-09T17:35:15.418Z,100312.95
2024-03-09T17:38:23.469Z,100311.17
2024-03-09T17:41:51.437Z,100307.20
2024-03-09T17:44:50.192Z,100308.19
2024-03-09T17:48:06.277Z,100313.47
2024-03-09T17:51:14.779Z,100308.52
2024-03-09T17:54:42.496Z,100306.65
2024-03-09T17:57:46.552Z,100318.69
2024-03-09T18:01:14.310Z,100321.94
2024-03-09T18:04:08.135Z,100325.11
2024-03-09T18:07:16.050Z,100325.69
2024-03-09T18:10:19.492Z,100323.14
2024-03-09T18:13:24.591Z,100329.27
2024-03-09T18:16:13.566Z,100327.29
2024-03-09T18:19:25.535Z,100329.67
2024-03-09T18:22:54.123Z,100323.75
2024-03-09T18:26:01.932Z,100324.33
2024-03-09T18:28:51.102Z,100322.95
2024-03-09T18:32:02.615Z,100325.48
2024-03-09T18:34:52.478Z,100324.13
2024-03-09T18:38:16.982Z,100324.51
2024-03-09T18:41:26.623Z,100329.13
2024-03-09T18:44:24.164Z,100324.89
2024-03-09T18:47:32.496Z,100325.64
2024-03-09T18:50:29.639Z,100326.11
2024-03-09T18:53:39.536Z,100325.24
2024-03-09T18:57:07.386Z,100328.08
2024-03-09T19:00:34.972Z,100333.77
2024-03-09T19:03:44.741Z,100328.05
2024-03-09T19:06:44.969Z,100324.73
2024-03-09T19:09:41.277Z,100313.80
2024-03-09T19:12:40.584Z,100315.77
2024-03-09T19:15:31.299Z,100326.88
2024-03-09T19:18:21.622Z,100326.53
2024-03-09T19:21:29.671Z,100330.29
2024-03-09T19:24:19.917Z,100328.52
2024-03-09T19:27:47.851Z,100318.45
2024-03-09T19:31:03.119Z,100321.34
2024-03-09T19:34:19.531Z,100316.66
2024-03-09T19:36:57.673Z,100316.42
2024-03-09T19:40:09.517Z,100319.27
2024-03-09T19:42:41.355Z,100324.05
2024-03-09T19:45:57.585Z,100325.31
2024-03-09T19:49:25.500Z,100321.52
2024-03-09T19:52:15.014Z,100315.34
2024-03-09T19:55:11.280Z,100307.66
2024-03-09T19:58:39.067Z,100306.20
2024-03-09T20:01:55.029Z,100307.52
2024-03-09T20:05:05.215Z,100303.63
2024-03-09T20:07:56.978Z,100301.45
2024-03-09T20:10:46.904Z,100301.13
2024-03-09T20:13:37.712Z,100296.45
2024-03-09T20:16:07.866Z,100296.44
2024-03-09T20:19:35.921Z,100305.17
2024-03-09T20:22:05.787Z,100305.61
2024-03-09T20:25:14.569Z,100309.48
2024-03-09T20:28:30.505Z,100308.52
2024-03-09T20:31:42.006Z,100307.83
2024-03-09T20:34:51.630Z,100309.57
2024-03-09T20:37:43.818Z,100307.52
2024-03-09T20:40:59.091Z,100308.17
2024-03-09T20:44:07.331Z,100303.60
2024-03-09T20:47:35.056Z,100297.50
2024-03-09T20:51:02.689Z,100294.89
2024-03-09T20:54:30.461Z,100287.88
2024-03-09T20:57:35.089Z,100285.63
2024-03-09T21:00:15.768Z,100279.04
2024-03-09T21:03:05.249Z,100282.09
2024-03-09T21:06:09.833Z,100278.94
2024-03-09T21:09:37.048Z,100269.80
2024-03-09T21:12:09.067Z,100271.55
2024-03-09T21:15:19.514Z,100270.58
2024-03-09T21:18:46.359Z,100268.98
2024-03-09T21:21:56.300Z,100270.02
2024-03-09T21:24:49.066Z,100275.18
2024-03-09T21:27:57.396Z,100278.44
2024-03-09T21:31:09.222Z,100272.11
2024-03-09T21:34:36.986Z,100266.92
2024-03-09T21:38:04.610Z,100266.70
2024-03-09T21:41:32.248Z,100269.98
2024-03-09T21:44:20.005Z,100267.85
2024-03-09T21:46:59.922Z,100259.66
2024-03-09T21:50:27.763Z,100254.80
2024-03-09T21:53:36.033Z,100251.09
2024-03-09T21:56:27.002Z,100246.79
2024-03-09T21:59:19.439Z,100247.02
2024-03-09T22:02:47.174Z,100245.13
2024-03-09T22:05:58.926Z,100240.88
2024-03-09T22:09:10.434Z,100233.25
2024-03-09T22:11:59.113Z,100235.61
2024-03-09T22:15:14.750Z,100227.77
2024-03-09T22:18:23.653Z,100225.62
2024-03-09T22:21:39.604Z,100229.21
2024-03-09T22:25:07.401Z,100227.88
2024-03-09T22:28:15.594Z,100233.61
2024-03-09T22:31:43.508Z,100231.55
2024-03-09T22:34:52.079Z,100235.45
2024-03-09T22:38:08.533Z,100241.11
2024-03-09T22:41:18.464Z,100241.37
2024-03-09T22:44:27.401Z,100242.02
2024-03-09T22:47:50.834Z,100243.80
2024-03-09T22:50:37.548Z,100237.56
2024-03-09T22:54:13.820Z,100237.91
2024-03-09T22:57:06.126Z,100240.79
2024-03-09T23:00:16.947Z,100243.50
2024-03-09T23:03:32.332Z,100242.21
2024-03-09T23:06:26.005Z,100239.02
2024-03-09T23:09:53.787Z,100242.14
2024-03-09T23:13:01.097Z,100245.86
2024-03-09T23:16:09.248Z,100247.46
2024-03-09T23:19:37.118Z,100246.14
2024-03-09T23:22:53.257Z,100252.36
2024-03-09T23:26:24.518Z,100252.46
2024-03-09T23:29:34.778Z,100254.63
2024-03-09T23:32:57.357Z,100253.69
2024-03-09T23:36:02.509Z,100247.33
2024-03-09T23:39:12.509Z,100247.96
2024-03-09T23:42:23.567Z,100241.56
2024-03-09T23:45:18.921Z,100247.54
2024-03-09T23:48:31.338Z,100250.05
2024-03-09T23:51:46.285Z,100251.00
2024-03-09T23:54:35.567Z,100249.42
2024-03-09T23:58:01.811Z,100250.14
